createdAt,value
2023-01-19T00:01:13.068Z,100083.00
2023-01-19T00:06:07.501Z,100095.03
2023-01-19T00:10:58.695Z,100124.50
2023-01-19T00:15:49.399Z,100145.16
2023-01-19T00:20:43.878Z,100123.47
2023-01-19T00:25:34.582Z,100123.63
2023-01-19T00:30:25.342Z,100122.81
2023-01-19T00:35:15.030Z,100107.38
2023-01-19T00:40:07.628Z,100111.69
2023-01-19T00:44:57.218Z,100120.19
2023-01-19T00:49:47.010Z,100140.75
2023-01-19T00:54:36.807Z,100151.09
2023-01-19T00:59:30.549Z,100136.53
2023-01-19T01:04:21.052Z,100142.56
2023-01-19T01:09:15.634Z,100142.56
2023-01-19T01:14:06.184Z,100139.13
2023-01-19T01:18:59.412Z,100148.56
2023-01-19T01:23:51.560Z,100153.69
2023-01-19T01:28:42.254Z,100160.59
2023-01-19T01:33:40.530Z,100169.97
2023-01-19T01:38:35.085Z,100168.28
2023-01-19T01:43:27.429Z,100157.66
2023-01-19T01:48:19.351Z,100177.41
2023-01-19T01:53:11.839Z,100187.69
2023-01-19T01:58:06.718Z,100192.66
2023-01-19T02:03:01.745Z,100192.19
2023-01-19T02:08:07.409Z,100185.41
2023-01-19T02:13:15.219Z,100198.31
2023-01-19T02:18:11.049Z,100207.72
2023-01-19T02:23:03.896Z,100215.06
2023-01-19T02:27:56.565Z,100216.47
2023-01-19T02:32:47.344Z,100216.44
2023-01-19T02:37:40.758Z,100236.00
2023-01-19T02:42:33.346Z,100239.47
2023-01-19T02:47:27.083Z,100249.38
2023-01-19T02:52:19.261Z,100260.38
2023-01-19T02:57:16.312Z,100259.31
2023-01-19T03:02:20.039Z,100276.34
2023-01-19T03:07:16.485Z,100280.50
2023-01-19T03:12:12.527Z,100264.31
2023-01-19T03:17:05.600Z,100277.56
2023-01-19T03:21:59.147Z,100281.16
2023-01-19T03:26:56.801Z,100272.03
2023-01-19T03:31:49.739Z,100265.22
2023-01-19T03:36:44.489Z,100257.34
2023-01-19T03:41:40.936Z,100265.06
2023-01-19T03:46:35.144Z,100257.34
2023-01-19T03:51:26.664Z,100243.72
2023-01-19T03:56:24.158Z,100241.47
2023-01-19T04:01:14.882Z,100258.47
2023-01-19T04:06:08.321Z,100284.50
2023-01-19T04:11:01.854Z,100274.97
2023-01-19T04:15:53.132Z,100262.81
2023-01-19T04:20:44.874Z,100273.28
2023-01-19T04:25:39.054Z,100286.44
2023-01-19T04:30:29.986Z,100273.66
2023-01-19T04:35:21.905Z,100289.22
2023-01-19T04:40:14.359Z,100298.94
2023-01-19T04:45:07.756Z,100289.63
2023-01-19T04:49:59.218Z,100293.13
2023-01-19T04:54:49.959Z,100285.97
2023-01-19T04:59:40.566Z,100297.31
2023-01-19T05:04:33.848Z,100285.91
2023-01-19T05:09:25.268Z,100297.97
2023-01-19T05:14:14.859Z,100300.44
2023-01-19T05:19:04.817Z,100308.16
2023-01-19T05:23:57.771Z,100309.88
2023-01-19T05:28:50.943Z,100309.16
2023-01-19T05:33:41.638Z,100315.16
2023-01-19T05:38:35.981Z,100310.94
2023-01-19T05:43:29.764Z,100310.00
2023-01-19T05:48:20.701Z,100311.72
2023-01-19T05:53:11.087Z,100320.34
2023-01-19T05:58:01.855Z,100323.78
2023-01-19T06:02:55.047Z,100323.75
2023-01-19T06:07:45.430Z,100327.97
2023-01-19T06:12:36.203Z,100331.28
2023-01-19T06:17:27.333Z,100337.19
2023-01-19T06:22:20.247Z,100340.53
2023-01-19T06:27:12.143Z,100352.44
2023-01-19T06:32:03.296Z,100355.81
2023-01-19T06:36:56.499Z,100359.25
2023-01-19T06:41:51.811Z,100359.31
2023-01-19T06:46:49.207Z,100366.13
2023-01-19T06:51:40.874Z,100372.47
2023-01-19T06:56:31.417Z,100391.69
2023-01-19T07:01:24.854Z,100414.16
2023-01-19T07:06:16.339Z,100406.41
2023-01-19T07:11:22.288Z,100403.34
2023-01-19T07:16:18.456Z,100417.28
2023-01-19T07:21:14.324Z,100429.34
2023-01-19T07:26:04.754Z,100427.72
2023-01-19T07:30:56.470Z,100432.88
2023-01-19T07:35:50.064Z,100450.94
2023-01-19T07:40:47.471Z,100451.78
2023-01-19T07:45:51.323Z,100462.22
2023-01-19T07:50:42.016Z,100458.00
2023-01-19T07:55:33.086Z,100463.09
2023-01-19T08:00:27.276Z,100472.44
2023-01-19T08:05:19.979Z,100476.69
2023-01-19T08:10:10.117Z,100479.34
2023-01-19T08:14:59.712Z,100489.69
2023-01-19T08:19:52.551Z,100492.06
2023-01-19T08:24:43.379Z,100501.78
2023-01-19T08:29:36.110Z,100508.06
2023-01-19T08:34:27.104Z,100516.00
2023-01-19T08:39:21.045Z,100516.19
2023-01-19T08:44:20.363Z,100521.03
2023-01-19T08:49:13.766Z,100527.88
2023-01-19T08:54:07.147Z,100530.47
2023-01-19T08:59:09.829Z,100530.53
2023-01-19T09:04:00.505Z,100532.75
2023-01-19T09:08:52.049Z,100535.97
2023-01-19T09:13:51.940Z,100536.03
2023-01-19T09:18:46.289Z,100542.88
2023-01-19T09:23:40.267Z,100550.69
2023-01-19T09:28:31.439Z,100555.81
2023-01-19T09:33:26.350Z,100565.44
2023-01-19T09:38:21.207Z,100561.91
2023-01-19T09:43:21.589Z,100567.13
2023-01-19T09:48:20.348Z,100568.84
2023-01-19T09:53:20.439Z,100581.22
2023-01-19T09:58:18.632Z,100592.72
2023-01-19T10:03:16.863Z,100596.88
2023-01-19T10:08:15.552Z,100590.41
2023-01-19T10:13:33.209Z,100596.69
2023-01-19T10:18:26.565Z,100609.13
2023-01-19T10:23:45.155Z,100606.72
2023-01-19T10:28:42.537Z,100607.41
2023-01-19T10:33:33.017Z,100604.72
2023-01-19T10:38:25.098Z,100614.28
2023-01-19T10:43:30.719Z,100604.09
2023-01-19T10:48:26.812Z,100599.81
2023-01-19T10:53:26.225Z,100603.28
2023-01-19T10:58:31.463Z,100606.72
2023-01-19T11:03:31.171Z,100605.84
2023-01-19T11:08:25.144Z,100607.56
2023-01-19T11:13:17.114Z,100613.53
2023-01-19T11:18:09.296Z,100633.28
2023-01-19T11:23:27.348Z,100621.28
2023-01-19T11:28:23.760Z,100619.56
2023-01-19T11:33:29.298Z,100623.72
2023-01-19T11:38:28.801Z,100620.78
2023-01-19T11:43:21.509Z,100625.81
2023-01-19T11:48:19.604Z,100623.91
2023-01-19T11:53:28.735Z,100620.56
2023-01-19T11:58:22.495Z,100617.94
2023-01-19T12:03:16.242Z,100624.81
2023-01-19T12:08:09.178Z,100615.31
2023-01-19T12:13:00.046Z,100616.25
2023-01-19T12:17:56.944Z,100612.03
2023-01-19T12:22:51.534Z,100616.41
2023-01-19T12:27:45.430Z,100617.41
2023-01-19T12:32:39.494Z,100615.81
2023-01-19T12:37:40.997Z,100614.22
2023-01-19T12:42:32.219Z,100616.66
2023-01-19T12:47:24.643Z,100603.84
2023-01-19T12:52:34.421Z,100609.00
2023-01-19T12:57:29.913Z,100606.47
2023-01-19T13:02:37.180Z,100598.66
2023-01-19T13:07:29.275Z,100600.34
2023-01-19T13:12:24.762Z,100603.78
2023-01-19T13:17:36.695Z,100603.84
2023-01-19T13:22:46.561Z,100605.63
2023-01-19T13:27:44.491Z,100606.47
2023-01-19T13:32:37.969Z,100603.84
2023-01-19T13:37:33.055Z,100610.00
2023-01-19T13:42:29.267Z,100614.28
2023-01-19T13:47:24.210Z,100610.84
2023-01-19T13:52:17.657Z,100623.75
2023-01-19T13:57:08.076Z,100622.06
2023-01-19T14:02:20.909Z,100630.63
2023-01-19T14:07:27.357Z,100622.84
2023-01-19T14:12:19.954Z,100634.09
2023-01-19T14:17:22.901Z,100628.88
2023-01-19T14:22:15.858Z,100640.00
2023-01-19T14:27:14.861Z,100633.94
2023-01-19T14:32:16.154Z,100640.03
2023-01-19T14:37:08.300Z,100649.44
2023-01-19T14:42:03.991Z,100639.97
2023-01-19T14:46:55.592Z,100645.84
2023-01-19T14:51:48.221Z,100652.75
2023-01-19T14:56:39.658Z,100653.63
2023-01-19T15:01:33.450Z,100657.09
2023-01-19T15:06:24.023Z,100651.00
2023-01-19T15:11:16.198Z,100663.88
2023-01-19T15:16:09.370Z,100668.06
2023-01-19T15:21:06.143Z,100673.94
2023-01-19T15:26:04.273Z,100679.00
2023-01-19T15:30:59.865Z,100677.97
2023-01-19T15:35:50.915Z,100685.66
2023-01-19T15:40:49.527Z,100687.28
2023-01-19T15:45:44.566Z,100689.75
2023-01-19T15:50:35.003Z,100688.66
2023-01-19T15:55:24.669Z,100700.59
2023-01-19T16:00:22.884Z,100703.38
2023-01-19T16:05:14.239Z,100703.81
2023-01-19T16:10:05.961Z,100703.66
2023-01-19T16:14:56.613Z,100709.56
2023-01-19T16:19:50.056Z,100729.28
2023-01-19T16:24:56.608Z,100718.91
2023-01-19T16:29:47.456Z,100726.50
2023-01-19T16:34:38.240Z,100727.41
2023-01-19T16:39:30.662Z,100733.22
2023-01-19T16:44:20.306Z,100733.75
2023-01-19T16:49:14.624Z,100738.75
2023-01-19T16:54:05.664Z,100748.59
2023-01-19T16:59:00.127Z,100760.97
2023-01-19T17:03:53.468Z,100762.56
2023-01-19T17:08:44.989Z,100764.25
2023-01-19T17:13:39.885Z,100772.75
2023-01-19T17:18:35.885Z,100782.66
2023-01-19T17:23:28.414Z,100802.06
2023-01-19T17:28:20.976Z,100805.94
2023-01-19T17:33:18.112Z,100798.09
2023-01-19T17:38:11.141Z,100799.56
2023-01-19T17:43:01.073Z,100804.31
2023-01-19T17:47:54.027Z,100801.03
2023-01-19T17:52:44.467Z,100797.66
2023-01-19T17:57:48.304Z,100798.72
2023-01-19T18:02:39.339Z,100809.56
2023-01-19T18:07:34.230Z,100808.03
2023-01-19T18:12:25.159Z,100810.50
2023-01-19T18:17:22.097Z,100816.31
2023-01-19T18:22:12.780Z,100826.38
2023-01-19T18:27:03.395Z,100822.03
2023-01-19T18:31:53.825Z,100817.81
2023-01-19T18:36:47.328Z,100816.88
2023-01-19T18:41:42.185Z,100806.47
2023-01-19T18:46:32.337Z,100804.63
2023-01-19T18:51:23.678Z,100817.41
2023-01-19T18:56:20.085Z,100826.81
2023-01-19T19:01:22.981Z,100836.13
2023-01-19T19:06:13.417Z,100848.63
2023-01-19T19:11:05.397Z,100852.91
2023-01-19T19:16:07.468Z,100860.59
2023-01-19T19:20:57.332Z,100859.66
2023-01-19T19:25:47.103Z,100863.53
2023-01-19T19:30:39.775Z,100867.59
2023-01-19T19:35:32.680Z,100873.59
2023-01-19T19:40:26.970Z,100879.59
2023-01-19T19:45:19.298Z,100884.59
2023-01-19T19:50:14.309Z,100893.00
2023-01-19T19:55:09.801Z,100899.00
2023-01-19T20:00:01.224Z,100914.56
2023-01-19T20:04:53.426Z,100916.75
2023-01-19T20:09:46.429Z,100921.28
2023-01-19T20:14:42.858Z,100927.75
2023-01-19T20:19:33.722Z,100911.78
2023-01-19T20:24:25.858Z,100923.66
2023-01-19T20:29:18.926Z,100932.47
2023-01-19T20:34:14.295Z,100925.09
2023-01-19T20:39:14.841Z,100946.59
2023-01-19T20:44:06.278Z,100943.91
2023-01-19T20:48:58.070Z,100960.56
2023-01-19T20:53:52.895Z,100972.34
2023-01-19T20:58:47.002Z,100982.63
2023-01-19T21:03:39.058Z,100986.34
2023-01-19T21:08:29.540Z,100996.81
2023-01-19T21:13:26.948Z,100999.56
2023-01-19T21:18:17.317Z,100999.69
2023-01-19T21:23:07.390Z,101003.22
2023-01-19T21:27:57.767Z,101001.41
2023-01-19T21:32:51.679Z,101013.28
2023-01-19T21:37:42.402Z,101011.22
2023-01-19T21:42:33.227Z,101011.91
2023-01-19T21:47:23.348Z,101009.88
2023-01-19T21:52:19.980Z,101014.06
2023-01-19T21:57:10.769Z,101006.69
2023-01-19T22:02:02.129Z,101012.56
2023-01-19T22:06:53.153Z,100996.75
2023-01-19T22:11:46.680Z,101014.19
2023-01-19T22:16:37.587Z,101016.75
2023-01-19T22:21:30.949Z,101023.56
2023-01-19T22:26:22.711Z,101026.00
2023-01-19T22:31:18.176Z,101023.22
2023-01-19T22:36:17.958Z,101026.03
2023-01-19T22:41:28.576Z,101021.88
2023-01-19T22:46:25.759Z,101030.66
2023-01-19T22:51:16.944Z,101018.41
2023-01-19T22:56:16.585Z,101038.13
2023-01-19T23:01:12.026Z,101051.13
2023-01-19T23:06:11.194Z,101057.94
2023-01-19T23:11:02.416Z,101053.63
2023-01-19T23:15:58.595Z,101066.84
2023-01-19T23:20:51.727Z,101062.13
2023-01-19T23:25:47.945Z,101059.94
2023-01-19T23:30:41.296Z,101066.19
2023-01-19T23:35:32.726Z,101071.28
2023-01-19T23:40:24.742Z,101077.50
2023-01-19T23:45:18.960Z,101074.84
2023-01-19T23:50:12.017Z,101073.84
2023-01-19T23:55:04.556Z,101076.34
2023-01-19T23:59:54.755Z,101091.69
